Terminal Aerodrome Forecast
Issued by NWS Memphis, TN

Home | Current Version | Previous Version | Text Only | Print | Product List | Glossary On
Versions: 1 2 3 4 5 6 7 8 9 10 11 12 13 14
000
FTUS44 KMEG 272322
TAFJBR
TAF
KJBR 272322Z 2800/2824 18006KT P6SM SCT250
     FM281300 14009KT P6SM OVC070
     FM281600 17010KT P6SM OVC020
     FM281900 18007KT P6SM OVC007=

USA.gov is the U.S. government's official web portal to all federal, state and local government web resources and services.